sensor_id;sensor_type;location;lat;lon;timestamp;P1;durP1;ratioP1;P2;durP2;ratioP2
417;SDS011;49;48.530;9.200;2023-02-23T00:00:41;50.80;;;28.93;;
417;SDS011;49;48.530;9.200;2023-02-23T00:03:11;49.57;;;27.43;;
417;SDS011;49;48.530;9.200;2023-02-23T00:05:39;41.13;;;26.50;;
417;SDS011;49;48.530;9.200;2023-02-23T00:08:07;48.33;;;28.00;;
417;SDS011;49;48.530;9.200;2023-02-23T00:10:35;40.60;;;25.10;;
417;SDS011;49;48.530;9.200;2023-02-23T00:13:04;53.57;;;27.57;;
417;SDS011;49;48.530;9.200;2023-02-23T00:15:34;50.90;;;26.40;;
417;SDS011;49;48.530;9.200;2023-02-23T00:18:03;48.10;;;26.27;;
417;SDS011;49;48.530;9.200;2023-02-23T00:20:33;44.63;;;26.07;;
417;SDS011;49;48.530;9.200;2023-02-23T00:23:00;42.10;;;25.70;;
417;SDS011;49;48.530;9.200;2023-02-23T00:25:31;48.83;;;27.50;;
417;SDS011;49;48.530;9.200;2023-02-23T00:27:58;54.17;;;25.97;;
417;SDS011;49;48.530;9.200;2023-02-23T00:30:25;44.03;;;26.13;;
417;SDS011;49;48.530;9.200;2023-02-23T00:32:55;41.90;;;25.53;;
417;SDS011;49;48.530;9.200;2023-02-23T00:35:24;44.77;;;26.33;;
417;SDS011;49;48.530;9.200;2023-02-23T00:37:54;40.63;;;26.57;;
417;SDS011;49;48.530;9.200;2023-02-23T00:40:22;41.93;;;26.43;;
417;SDS011;49;48.530;9.200;2023-02-23T00:42:53;39.03;;;25.10;;
417;SDS011;49;48.530;9.200;2023-02-23T00:45:24;47.33;;;27.13;;
417;SDS011;49;48.530;9.200;2023-02-23T00:47:52;43.90;;;27.60;;
417;SDS011;49;48.530;9.200;2023-02-23T00:50:20;41.27;;;26.90;;
417;SDS011;49;48.530;9.200;2023-02-23T00:52:50;45.63;;;26.67;;
417;SDS011;49;48.530;9.200;2023-02-23T00:55:17;49.23;;;26.10;;
417;SDS011;49;48.530;9.200;2023-02-23T00:57:45;38.43;;;22.33;;
417;SDS011;49;48.530;9.200;2023-02-23T01:00:12;43.93;;;25.17;;
417;SDS011;49;48.530;9.200;2023-02-23T01:02:44;50.30;;;27.93;;
417;SDS011;49;48.530;9.200;2023-02-23T01:05:13;40.73;;;26.20;;
417;SDS011;49;48.530;9.200;2023-02-23T01:07:41;41.67;;;26.13;;
417;SDS011;49;48.530;9.200;2023-02-23T01:10:14;46.10;;;26.10;;
417;SDS011;49;48.530;9.200;2023-02-23T01:12:47;43.40;;;26.90;;
417;SDS011;49;48.530;9.200;2023-02-23T01:15:16;48.93;;;27.10;;
417;SDS011;49;48.530;9.200;2023-02-23T01:17:46;44.70;;;26.33;;
417;SDS011;49;48.530;9.200;2023-02-23T01:20:17;44.30;;;27.87;;
417;SDS011;49;48.530;9.200;2023-02-23T01:22:45;41.50;;;26.10;;
417;SDS011;49;48.530;9.200;2023-02-23T01:25:15;46.97;;;26.67;;
417;SDS011;49;48.530;9.200;2023-02-23T01:27:44;46.60;;;26.60;;
417;SDS011;49;48.530;9.200;2023-02-23T01:30:13;45.30;;;27.27;;
417;SDS011;49;48.530;9.200;2023-02-23T01:32:41;47.83;;;26.47;;
417;SDS011;49;48.530;9.200;2023-02-23T01:35:09;50.30;;;25.90;;
417;SDS011;49;48.530;9.200;2023-02-23T01:37:38;46.13;;;26.57;;
417;SDS011;49;48.530;9.200;2023-02-23T01:40:11;43.83;;;26.00;;
417;SDS011;49;48.530;9.200;2023-02-23T01:42:46;49.53;;;27.80;;
417;SDS011;49;48.530;9.200;2023-02-23T01:45:24;44.23;;;28.33;;
417;SDS011;49;48.530;9.200;2023-02-23T01:48:00;50.47;;;29.40;;
417;SDS011;49;48.530;9.200;2023-02-23T01:50:34;47.93;;;28.23;;
417;SDS011;49;48.530;9.200;2023-02-23T01:53:09;51.93;;;28.60;;
417;SDS011;49;48.530;9.200;2023-02-23T01:55:38;52.13;;;29.50;;
417;SDS011;49;48.530;9.200;2023-02-23T01:58:11;54.10;;;29.40;;
417;SDS011;49;48.530;9.200;2023-02-23T02:00:47;52.63;;;26.90;;
417;SDS011;49;48.530;9.200;2023-02-23T02:03:19;45.27;;;28.00;;
417;SDS011;49;48.530;9.200;2023-02-23T02:05:54;55.57;;;27.30;;
417;SDS011;49;48.530;9.200;2023-02-23T02:08:26;45.77;;;27.57;;
417;SDS011;49;48.530;9.200;2023-02-23T02:10:57;48.67;;;29.40;;
417;SDS011;49;48.530;9.200;2023-02-23T02:13:26;48.60;;;28.57;;
417;SDS011;49;48.530;9.200;2023-02-23T02:16:04;48.87;;;29.10;;
417;SDS011;49;48.530;9.200;2023-02-23T02:18:56;51.27;;;27.37;;
417;SDS011;49;48.530;9.200;2023-02-23T02:21:44;47.37;;;28.93;;
417;SDS011;49;48.530;9.200;2023-02-23T02:30:57;49.10;;;27.93;;
417;SDS011;49;48.530;9.200;2023-02-23T02:34:19;53.93;;;29.43;;
417;SDS011;49;48.530;9.200;2023-02-23T02:37:16;45.50;;;28.00;;
417;SDS011;49;48.530;9.200;2023-02-23T02:40:01;53.20;;;30.83;;
417;SDS011;49;48.530;9.200;2023-02-23T02:42:54;44.50;;;28.17;;
417;SDS011;49;48.530;9.200;2023-02-23T02:45:36;50.00;;;29.13;;
417;SDS011;49;48.530;9.200;2023-02-23T02:48:11;49.50;;;28.50;;
417;SDS011;49;48.530;9.200;2023-02-23T02:50:44;40.83;;;26.60;;
417;SDS011;49;48.530;9.200;2023-02-23T02:53:21;49.83;;;30.10;;
417;SDS011;49;48.530;9.200;2023-02-23T02:56:01;48.07;;;27.90;;
417;SDS011;49;48.530;9.200;2023-02-23T02:58:30;47.80;;;27.97;;
417;SDS011;49;48.530;9.200;2023-02-23T03:01:11;42.30;;;26.57;;
417;SDS011;49;48.530;9.200;2023-02-23T03:03:57;44.10;;;27.13;;
417;SDS011;49;48.530;9.200;2023-02-23T03:06:48;45.07;;;26.40;;
417;SDS011;49;48.530;9.200;2023-02-23T03:09:44;47.13;;;27.40;;
417;SDS011;49;48.530;9.200;2023-02-23T03:12:38;43.60;;;28.27;;
417;SDS011;49;48.530;9.200;2023-02-23T03:15:31;58.77;;;28.60;;
417;SDS011;49;48.530;9.200;2023-02-23T03:18:35;45.30;;;28.00;;
417;SDS011;49;48.530;9.200;2023-02-23T03:21:46;53.13;;;29.40;;
417;SDS011;49;48.530;9.200;2023-02-23T03:24:40;47.60;;;29.33;;
417;SDS011;49;48.530;9.200;2023-02-23T03:27:36;45.13;;;28.57;;
417;SDS011;49;48.530;9.200;2023-02-23T03:30:29;52.93;;;28.30;;
417;SDS011;49;48.530;9.200;2023-02-23T03:33:33;47.80;;;28.43;;
417;SDS011;49;48.530;9.200;2023-02-23T03:36:25;54.80;;;27.30;;
417;SDS011;49;48.530;9.200;2023-02-23T03:39:17;51.70;;;28.67;;
417;SDS011;49;48.530;9.200;2023-02-23T03:42:08;49.97;;;28.97;;
417;SDS011;49;48.530;9.200;2023-02-23T03:44:56;51.50;;;30.13;;
417;SDS011;49;48.530;9.200;2023-02-23T03:47:44;54.40;;;30.40;;
417;SDS011;49;48.530;9.200;2023-02-23T03:50:32;49.47;;;29.23;;
417;SDS011;49;48.530;9.200;2023-02-23T03:53:26;48.40;;;28.60;;
417;SDS011;49;48.530;9.200;2023-02-23T03:56:15;44.83;;;28.37;;
417;SDS011;49;48.530;9.200;2023-02-23T03:59:04;51.40;;;29.23;;
417;SDS011;49;48.530;9.200;2023-02-23T04:01:51;47.70;;;27.57;;
417;SDS011;49;48.530;9.200;2023-02-23T04:04:39;50.23;;;26.43;;
417;SDS011;49;48.530;9.200;2023-02-23T04:07:27;56.70;;;30.23;;
417;SDS011;49;48.530;9.200;2023-02-23T04:10:12;47.13;;;28.40;;
417;SDS011;49;48.530;9.200;2023-02-23T04:12:57;44.80;;;27.70;;
417;SDS011;49;48.530;9.200;2023-02-23T04:15:43;45.80;;;26.33;;
417;SDS011;49;48.530;9.200;2023-02-23T04:18:13;47.80;;;27.27;;
417;SDS011;49;48.530;9.200;2023-02-23T04:20:45;53.03;;;29.30;;
417;SDS011;49;48.530;9.200;2023-02-23T04:23:12;49.10;;;26.27;;
417;SDS011;49;48.530;9.200;2023-02-23T04:25:41;48.50;;;30.13;;
417;SDS011;49;48.530;9.200;2023-02-23T04:28:09;48.83;;;27.70;;
417;SDS011;49;48.530;9.200;2023-02-23T04:30:37;49.50;;;29.00;;
417;SDS011;49;48.530;9.200;2023-02-23T04:33:09;40.60;;;27.60;;
417;SDS011;49;48.530;9.200;2023-02-23T04:35:37;51.87;;;29.10;;
417;SDS011;49;48.530;9.200;2023-02-23T04:38:04;46.87;;;28.00;;
417;SDS011;49;48.530;9.200;2023-02-23T04:40:32;49.83;;;28.10;;
417;SDS011;49;48.530;9.200;2023-02-23T04:43:00;48.60;;;29.77;;
417;SDS011;49;48.530;9.200;2023-02-23T04:45:31;48.63;;;29.43;;
417;SDS011;49;48.530;9.200;2023-02-23T04:47:59;54.63;;;28.43;;
417;SDS011;49;48.530;9.200;2023-02-23T04:50:29;52.10;;;29.93;;
417;SDS011;49;48.530;9.200;2023-02-23T04:52:56;46.43;;;28.53;;
417;SDS011;49;48.530;9.200;2023-02-23T04:55:24;51.93;;;29.40;;
417;SDS011;49;48.530;9.200;2023-02-23T04:57:55;45.73;;;27.63;;
417;SDS011;49;48.530;9.200;2023-02-23T05:00:24;43.30;;;27.73;;
417;SDS011;49;48.530;9.200;2023-02-23T05:02:53;47.60;;;28.57;;
417;SDS011;49;48.530;9.200;2023-02-23T05:05:23;49.17;;;29.27;;
417;SDS011;49;48.530;9.200;2023-02-23T05:07:52;46.93;;;28.27;;
417;SDS011;49;48.530;9.200;2023-02-23T05:10:20;43.57;;;27.03;;
417;SDS011;49;48.530;9.200;2023-02-23T05:12:48;41.80;;;25.33;;
417;SDS011;49;48.530;9.200;2023-02-23T05:15:15;46.77;;;25.17;;
417;SDS011;49;48.530;9.200;2023-02-23T05:17:43;46.00;;;26.20;;
417;SDS011;49;48.530;9.200;2023-02-23T05:20:12;34.53;;;22.93;;
417;SDS011;49;48.530;9.200;2023-02-23T05:22:40;41.23;;;23.93;;
417;SDS011;49;48.530;9.200;2023-02-23T05:25:11;46.10;;;25.73;;
417;SDS011;49;48.530;9.200;2023-02-23T05:27:39;41.57;;;25.27;;
417;SDS011;49;48.530;9.200;2023-02-23T05:30:07;52.30;;;28.10;;
417;SDS011;49;48.530;9.200;2023-02-23T05:32:35;42.27;;;24.87;;
417;SDS011;49;48.530;9.200;2023-02-23T05:35:02;41.33;;;25.20;;
417;SDS011;49;48.530;9.200;2023-02-23T05:37:32;42.93;;;25.50;;
417;SDS011;49;48.530;9.200;2023-02-23T05:39:59;41.57;;;25.60;;
417;SDS011;49;48.530;9.200;2023-02-23T05:42:29;44.17;;;24.03;;
417;SDS011;49;48.530;9.200;2023-02-23T05:44:57;31.53;;;20.47;;
417;SDS011;49;48.530;9.200;2023-02-23T05:47:24;38.10;;;21.33;;
417;SDS011;49;48.530;9.200;2023-02-23T05:49:51;41.60;;;23.30;;
417;SDS011;49;48.530;9.200;2023-02-23T05:52:18;40.60;;;22.93;;
417;SDS011;49;48.530;9.200;2023-02-23T05:54:45;41.87;;;23.40;;
417;SDS011;49;48.530;9.200;2023-02-23T05:57:12;37.50;;;23.20;;
417;SDS011;49;48.530;9.200;2023-02-23T05:59:44;32.27;;;21.60;;
417;SDS011;49;48.530;9.200;2023-02-23T06:02:16;37.33;;;23.53;;
417;SDS011;49;48.530;9.200;2023-02-23T06:04:49;36.40;;;21.50;;
417;SDS011;49;48.530;9.200;2023-02-23T06:07:16;34.03;;;22.57;;
417;SDS011;49;48.530;9.200;2023-02-23T06:09:43;36.90;;;23.13;;
417;SDS011;49;48.530;9.200;2023-02-23T06:12:13;34.77;;;23.67;;
417;SDS011;49;48.530;9.200;2023-02-23T06:14:42;48.20;;;27.13;;
417;SDS011;49;48.530;9.200;2023-02-23T06:17:10;39.57;;;25.33;;
417;SDS011;49;48.530;9.200;2023-02-23T06:19:37;45.37;;;23.90;;
417;SDS011;49;48.530;9.200;2023-02-23T06:22:04;42.97;;;24.83;;
417;SDS011;49;48.530;9.200;2023-02-23T06:24:35;41.53;;;24.10;;
417;SDS011;49;48.530;9.200;2023-02-23T06:27:03;42.63;;;25.20;;
417;SDS011;49;48.530;9.200;2023-02-23T06:29:31;47.30;;;25.73;;
417;SDS011;49;48.530;9.200;2023-02-23T06:32:00;41.33;;;23.57;;
417;SDS011;49;48.530;9.200;2023-02-23T06:34:31;42.97;;;24.40;;
417;SDS011;49;48.530;9.200;2023-02-23T06:36:59;35.60;;;22.37;;
417;SDS011;49;48.530;9.200;2023-02-23T06:39:30;35.63;;;22.60;;
417;SDS011;49;48.530;9.200;2023-02-23T06:41:59;35.77;;;22.03;;
417;SDS011;49;48.530;9.200;2023-02-23T06:44:27;34.30;;;21.17;;
417;SDS011;49;48.530;9.200;2023-02-23T06:46:54;36.90;;;21.67;;
417;SDS011;49;48.530;9.200;2023-02-23T06:49:23;37.73;;;22.30;;
417;SDS011;49;48.530;9.200;2023-02-23T06:51:51;40.73;;;25.40;;
417;SDS011;49;48.530;9.200;2023-02-23T06:54:18;39.73;;;25.33;;
417;SDS011;49;48.530;9.200;2023-02-23T06:56:49;38.13;;;24.93;;
417;SDS011;49;48.530;9.200;2023-02-23T06:59:24;40.67;;;23.67;;
417;SDS011;49;48.530;9.200;2023-02-23T07:02:03;36.67;;;21.37;;
417;SDS011;49;48.530;9.200;2023-02-23T07:04:42;36.20;;;24.17;;
417;SDS011;49;48.530;9.200;2023-02-23T07:07:10;36.40;;;20.97;;
417;SDS011;49;48.530;9.200;2023-02-23T07:09:48;37.40;;;21.07;;
417;SDS011;49;48.530;9.200;2023-02-23T07:12:16;29.60;;;19.33;;
417;SDS011;49;48.530;9.200;2023-02-23T07:14:47;35.57;;;19.17;;
417;SDS011;49;48.530;9.200;2023-02-23T07:17:15;32.37;;;19.53;;
417;SDS011;49;48.530;9.200;2023-02-23T07:19:46;33.30;;;20.03;;
417;SDS011;49;48.530;9.200;2023-02-23T07:22:14;31.47;;;20.30;;
417;SDS011;49;48.530;9.200;2023-02-23T07:24:42;37.03;;;21.83;;
417;SDS011;49;48.530;9.200;2023-02-23T07:27:22;41.63;;;22.20;;
417;SDS011;49;48.530;9.200;2023-02-23T07:30:04;45.20;;;24.40;;
417;SDS011;49;48.530;9.200;2023-02-23T07:32:37;37.83;;;22.70;;
417;SDS011;49;48.530;9.200;2023-02-23T07:35:06;39.93;;;23.33;;
417;SDS011;49;48.530;9.200;2023-02-23T07:37:37;37.93;;;22.70;;
417;SDS011;49;48.530;9.200;2023-02-23T07:40:10;36.23;;;20.93;;
417;SDS011;49;48.530;9.200;2023-02-23T07:42:45;44.33;;;23.23;;
417;SDS011;49;48.530;9.200;2023-02-23T07:45:12;31.33;;;19.87;;
417;SDS011;49;48.530;9.200;2023-02-23T07:47:42;34.20;;;20.23;;
417;SDS011;49;48.530;9.200;2023-02-23T07:50:19;32.80;;;17.73;;
417;SDS011;49;48.530;9.200;2023-02-23T07:52:46;36.40;;;18.03;;
417;SDS011;49;48.530;9.200;2023-02-23T07:55:15;34.93;;;19.50;;
417;SDS011;49;48.530;9.200;2023-02-23T07:57:43;31.90;;;17.80;;
417;SDS011;49;48.530;9.200;2023-02-23T08:00:11;29.90;;;16.70;;
417;SDS011;49;48.530;9.200;2023-02-23T08:02:38;24.87;;;16.27;;
417;SDS011;49;48.530;9.200;2023-02-23T08:05:06;33.23;;;16.23;;
417;SDS011;49;48.530;9.200;2023-02-23T08:07:36;25.03;;;16.50;;
417;SDS011;49;48.530;9.200;2023-02-23T08:10:04;20.93;;;14.43;;
417;SDS011;49;48.530;9.200;2023-02-23T08:12:32;28.03;;;17.33;;
417;SDS011;49;48.530;9.200;2023-02-23T08:14:59;30.50;;;17.40;;
417;SDS011;49;48.530;9.200;2023-02-23T08:17:27;24.97;;;16.17;;
417;SDS011;49;48.530;9.200;2023-02-23T08:19:56;31.80;;;16.33;;
417;SDS011;49;48.530;9.200;2023-02-23T08:22:29;27.70;;;15.53;;
417;SDS011;49;48.530;9.200;2023-02-23T08:24:59;36.67;;;15.20;;
417;SDS011;49;48.530;9.200;2023-02-23T08:27:32;22.27;;;15.13;;
417;SDS011;49;48.530;9.200;2023-02-23T08:30:03;28.60;;;16.20;;
417;SDS011;49;48.530;9.200;2023-02-23T08:32:34;23.53;;;15.90;;
417;SDS011;49;48.530;9.200;2023-02-23T08:35:02;27.40;;;16.47;;
417;SDS011;49;48.530;9.200;2023-02-23T08:37:29;24.23;;;13.80;;
417;SDS011;49;48.530;9.200;2023-02-23T08:40:01;24.00;;;15.50;;
417;SDS011;49;48.530;9.200;2023-02-23T08:42:32;28.00;;;16.20;;
417;SDS011;49;48.530;9.200;2023-02-23T08:45:08;27.47;;;15.20;;
417;SDS011;49;48.530;9.200;2023-02-23T08:47:37;30.40;;;16.07;;
417;SDS011;49;48.530;9.200;2023-02-23T08:50:04;19.63;;;13.90;;
417;SDS011;49;48.530;9.200;2023-02-23T08:52:34;23.00;;;14.43;;
417;SDS011;49;48.530;9.200;2023-02-23T08:55:06;30.33;;;16.67;;
417;SDS011;49;48.530;9.200;2023-02-23T08:57:35;31.93;;;16.90;;
417;SDS011;49;48.530;9.200;2023-02-23T09:00:04;30.10;;;19.67;;
417;SDS011;49;48.530;9.200;2023-02-23T09:02:38;30.00;;;18.00;;
417;SDS011;49;48.530;9.200;2023-02-23T09:05:14;28.00;;;18.47;;
417;SDS011;49;48.530;9.200;2023-02-23T09:07:51;33.17;;;18.67;;
417;SDS011;49;48.530;9.200;2023-02-23T09:10:31;25.70;;;16.27;;
417;SDS011;49;48.530;9.200;2023-02-23T09:13:09;29.17;;;14.50;;
417;SDS011;49;48.530;9.200;2023-02-23T09:15:44;23.03;;;13.40;;
417;SDS011;49;48.530;9.200;2023-02-23T09:18:12;22.13;;;13.60;;
417;SDS011;49;48.530;9.200;2023-02-23T09:20:41;22.17;;;13.83;;
417;SDS011;49;48.530;9.200;2023-02-23T09:23:10;20.60;;;12.47;;
417;SDS011;49;48.530;9.200;2023-02-23T09:25:47;19.00;;;12.60;;
417;SDS011;49;48.530;9.200;2023-02-23T09:28:20;18.70;;;12.57;;
417;SDS011;49;48.530;9.200;2023-02-23T09:30:47;18.10;;;12.60;;
417;SDS011;49;48.530;9.200;2023-02-23T09:33:18;19.60;;;12.50;;
417;SDS011;49;48.530;9.200;2023-02-23T09:35:48;23.40;;;14.33;;
417;SDS011;49;48.530;9.200;2023-02-23T09:38:18;34.10;;;12.90;;
417;SDS011;49;48.530;9.200;2023-02-23T09:40:57;26.67;;;11.63;;
417;SDS011;49;48.530;9.200;2023-02-23T09:43:29;25.70;;;12.40;;
417;SDS011;49;48.530;9.200;2023-02-23T09:46:11;17.27;;;9.80;;
417;SDS011;49;48.530;9.200;2023-02-23T09:49:04;25.80;;;11.43;;
417;SDS011;49;48.530;9.200;2023-02-23T09:51:42;19.37;;;10.20;;
417;SDS011;49;48.530;9.200;2023-02-23T09:54:15;12.97;;;6.33;;
417;SDS011;49;48.530;9.200;2023-02-23T09:56:46;13.10;;;7.00;;
417;SDS011;49;48.530;9.200;2023-02-23T09:59:20;12.87;;;6.80;;
417;SDS011;49;48.530;9.200;2023-02-23T10:02:01;16.67;;;6.40;;
417;SDS011;49;48.530;9.200;2023-02-23T10:04:45;10.70;;;6.83;;
417;SDS011;49;48.530;9.200;2023-02-23T10:07:19;17.87;;;7.00;;
417;SDS011;49;48.530;9.200;2023-02-23T10:09:54;22.63;;;8.03;;
417;SDS011;49;48.530;9.200;2023-02-23T10:12:56;20.87;;;11.23;;
417;SDS011;49;48.530;9.200;2023-02-23T10:15:32;12.80;;;5.93;;
417;SDS011;49;48.530;9.200;2023-02-23T10:18:14;11.77;;;6.00;;
417;SDS011;49;48.530;9.200;2023-02-23T10:21:00;23.97;;;6.40;;
417;SDS011;49;48.530;9.200;2023-02-23T10:23:45;14.23;;;6.37;;
417;SDS011;49;48.530;9.200;2023-02-23T10:26:30;25.13;;;7.60;;
417;SDS011;49;48.530;9.200;2023-02-23T10:29:17;22.13;;;6.97;;
417;SDS011;49;48.530;9.200;2023-02-23T10:31:53;15.80;;;6.47;;
417;SDS011;49;48.530;9.200;2023-02-23T10:34:30;13.03;;;4.80;;
417;SDS011;49;48.530;9.200;2023-02-23T10:37:05;14.53;;;5.97;;
417;SDS011;49;48.530;9.200;2023-02-23T10:39:41;16.63;;;5.80;;
417;SDS011;49;48.530;9.200;2023-02-23T10:42:12;14.07;;;4.90;;
417;SDS011;49;48.530;9.200;2023-02-23T10:44:54;14.90;;;5.23;;
417;SDS011;49;48.530;9.200;2023-02-23T10:47:26;13.97;;;5.63;;
417;SDS011;49;48.530;9.200;2023-02-23T10:50:01;15.93;;;5.50;;
417;SDS011;49;48.530;9.200;2023-02-23T10:52:32;21.43;;;6.07;;
417;SDS011;49;48.530;9.200;2023-02-23T10:55:19;10.00;;;5.67;;
417;SDS011;49;48.530;9.200;2023-02-23T10:58:01;14.13;;;5.37;;
417;SDS011;49;48.530;9.200;2023-02-23T11:00:35;12.63;;;5.60;;
417;SDS011;49;48.530;9.200;2023-02-23T11:03:17;13.90;;;5.70;;
417;SDS011;49;48.530;9.200;2023-02-23T11:05:51;15.17;;;7.80;;
417;SDS011;49;48.530;9.200;2023-02-23T11:08:27;26.53;;;6.07;;
417;SDS011;49;48.530;9.200;2023-02-23T11:11:01;14.50;;;6.37;;
417;SDS011;49;48.530;9.200;2023-02-23T11:13:44;17.60;;;7.07;;
417;SDS011;49;48.530;9.200;2023-02-23T11:16:23;18.93;;;5.77;;
417;SDS011;49;48.530;9.200;2023-02-23T11:18:56;22.83;;;5.13;;
417;SDS011;49;48.530;9.200;2023-02-23T11:21:28;16.50;;;5.37;;
417;SDS011;49;48.530;9.200;2023-02-23T11:24:04;14.87;;;5.93;;
417;SDS011;49;48.530;9.200;2023-02-23T11:27:00;20.90;;;5.43;;
417;SDS011;49;48.530;9.200;2023-02-23T11:29:38;12.57;;;4.67;;
417;SDS011;49;48.530;9.200;2023-02-23T11:32:14;16.83;;;5.03;;
417;SDS011;49;48.530;9.200;2023-02-23T11:37:58;16.80;;;5.50;;
417;SDS011;49;48.530;9.200;2023-02-23T11:40:44;11.53;;;4.53;;
417;SDS011;49;48.530;9.200;2023-02-23T11:43:34;11.60;;;4.73;;
417;SDS011;49;48.530;9.200;2023-02-23T11:46:17;13.30;;;5.10;;
417;SDS011;49;48.530;9.200;2023-02-23T11:48:50;21.60;;;5.53;;
417;SDS011;49;48.530;9.200;2023-02-23T11:51:23;17.27;;;6.30;;
417;SDS011;49;48.530;9.200;2023-02-23T11:54:15;17.73;;;4.87;;
417;SDS011;49;48.530;9.200;2023-02-23T11:56:54;20.13;;;4.70;;
417;SDS011;49;48.530;9.200;2023-02-23T11:59:31;15.97;;;4.43;;
417;SDS011;49;48.530;9.200;2023-02-23T12:02:17;19.37;;;4.57;;
417;SDS011;49;48.530;9.200;2023-02-23T12:05:00;14.53;;;4.60;;
417;SDS011;49;48.530;9.200;2023-02-23T12:07:39;12.13;;;4.37;;
417;SDS011;49;48.530;9.200;2023-02-23T12:10:20;14.10;;;4.70;;
417;SDS011;49;48.530;9.200;2023-02-23T12:12:56;15.30;;;5.37;;
417;SDS011;49;48.530;9.200;2023-02-23T12:15:31;15.60;;;5.33;;
417;SDS011;49;48.530;9.200;2023-02-23T12:18:11;8.17;;;4.80;;
417;SDS011;49;48.530;9.200;2023-02-23T12:20:47;15.93;;;4.87;;
417;SDS011;49;48.530;9.200;2023-02-23T12:23:20;15.93;;;5.17;;
417;SDS011;49;48.530;9.200;2023-02-23T12:25:53;19.23;;;5.77;;
417;SDS011;49;48.530;9.200;2023-02-23T12:28:24;18.83;;;4.90;;
417;SDS011;49;48.530;9.200;2023-02-23T12:30:59;17.50;;;5.10;;
417;SDS011;49;48.530;9.200;2023-02-23T12:33:33;19.50;;;6.53;;
417;SDS011;49;48.530;9.200;2023-02-23T12:36:10;8.80;;;4.60;;
417;SDS011;49;48.530;9.200;2023-02-23T12:38:48;15.83;;;5.23;;
417;SDS011;49;48.530;9.200;2023-02-23T12:41:24;16.43;;;5.30;;
417;SDS011;49;48.530;9.200;2023-02-23T12:44:01;14.73;;;4.90;;
417;SDS011;49;48.530;9.200;2023-02-23T12:46:38;11.20;;;4.90;;
417;SDS011;49;48.530;9.200;2023-02-23T12:49:20;14.63;;;4.97;;
417;SDS011;49;48.530;9.200;2023-02-23T12:52:03;14.20;;;5.40;;
417;SDS011;49;48.530;9.200;2023-02-23T12:54:37;17.37;;;6.10;;
417;SDS011;49;48.530;9.200;2023-02-23T12:57:08;26.20;;;6.20;;
417;SDS011;49;48.530;9.200;2023-02-23T12:59:49;20.27;;;6.00;;
417;SDS011;49;48.530;9.200;2023-02-23T13:02:45;14.87;;;6.10;;
417;SDS011;49;48.530;9.200;2023-02-23T13:05:19;13.30;;;5.20;;
417;SDS011;49;48.530;9.200;2023-02-23T13:08:08;19.50;;;5.33;;
417;SDS011;49;48.530;9.200;2023-02-23T13:10:47;30.13;;;6.10;;
417;SDS011;49;48.530;9.200;2023-02-23T13:13:25;19.77;;;6.00;;
417;SDS011;49;48.530;9.200;2023-02-23T13:16:13;11.10;;;5.70;;
417;SDS011;49;48.530;9.200;2023-02-23T13:18:56;19.80;;;7.00;;
417;SDS011;49;48.530;9.200;2023-02-23T13:21:33;19.60;;;5.73;;
417;SDS011;49;48.530;9.200;2023-02-23T13:24:16;17.77;;;5.23;;
417;SDS011;49;48.530;9.200;2023-02-23T13:26:54;13.53;;;6.43;;
417;SDS011;49;48.530;9.200;2023-02-23T13:29:33;11.50;;;5.27;;
417;SDS011;49;48.530;9.200;2023-02-23T13:32:08;19.10;;;6.00;;
417;SDS011;49;48.530;9.200;2023-02-23T13:34:41;31.20;;;12.27;;
417;SDS011;49;48.530;9.200;2023-02-23T13:37:13;22.93;;;8.17;;
417;SDS011;49;48.530;9.200;2023-02-23T13:39:59;17.27;;;5.07;;
417;SDS011;49;48.530;9.200;2023-02-23T13:42:38;16.07;;;5.17;;
417;SDS011;49;48.530;9.200;2023-02-23T13:45:26;16.30;;;5.70;;
417;SDS011;49;48.530;9.200;2023-02-23T13:48:04;15.37;;;5.80;;
417;SDS011;49;48.530;9.200;2023-02-23T13:50:43;13.43;;;5.40;;
417;SDS011;49;48.530;9.200;2023-02-23T13:53:26;27.80;;;8.27;;
417;SDS011;49;48.530;9.200;2023-02-23T13:56:14;14.20;;;5.60;;
417;SDS011;49;48.530;9.200;2023-02-23T13:58:50;15.37;;;5.40;;
417;SDS011;49;48.530;9.200;2023-02-23T14:01:28;13.97;;;5.90;;
417;SDS011;49;48.530;9.200;2023-02-23T14:03:58;20.30;;;7.37;;
417;SDS011;49;48.530;9.200;2023-02-23T14:06:29;19.03;;;6.50;;
417;SDS011;49;48.530;9.200;2023-02-23T14:09:06;15.27;;;5.87;;
417;SDS011;49;48.530;9.200;2023-02-23T14:11:55;20.93;;;6.57;;
417;SDS011;49;48.530;9.200;2023-02-23T14:14:40;21.27;;;6.83;;
417;SDS011;49;48.530;9.200;2023-02-23T14:17:37;16.47;;;5.57;;
417;SDS011;49;48.530;9.200;2023-02-23T14:20:22;12.67;;;5.90;;
417;SDS011;49;48.530;9.200;2023-02-23T14:23:28;26.37;;;7.03;;
417;SDS011;49;48.530;9.200;2023-02-23T14:29:16;18.20;;;6.13;;
417;SDS011;49;48.530;9.200;2023-02-23T14:31:55;20.60;;;6.73;;
417;SDS011;49;48.530;9.200;2023-02-23T14:37:15;20.00;;;6.80;;
417;SDS011;49;48.530;9.200;2023-02-23T14:39:55;13.00;;;5.57;;
417;SDS011;49;48.530;9.200;2023-02-23T14:42:28;14.00;;;5.97;;
417;SDS011;49;48.530;9.200;2023-02-23T14:47:49;14.73;;;6.30;;
417;SDS011;49;48.530;9.200;2023-02-23T14:50:24;14.60;;;5.50;;
417;SDS011;49;48.530;9.200;2023-02-23T14:53:02;17.33;;;6.60;;
417;SDS011;49;48.530;9.200;2023-02-23T14:55:39;10.37;;;5.50;;
417;SDS011;49;48.530;9.200;2023-02-23T14:58:17;24.57;;;6.53;;
417;SDS011;49;48.530;9.200;2023-02-23T15:00:52;21.37;;;6.27;;
417;SDS011;49;48.530;9.200;2023-02-23T15:03:20;19.13;;;6.27;;
417;SDS011;49;48.530;9.200;2023-02-23T15:05:49;15.77;;;5.97;;
417;SDS011;49;48.530;9.200;2023-02-23T15:08:23;15.57;;;6.03;;
417;SDS011;49;48.530;9.200;2023-02-23T15:10:57;16.23;;;6.30;;
417;SDS011;49;48.530;9.200;2023-02-23T15:13:31;20.43;;;6.47;;
417;SDS011;49;48.530;9.200;2023-02-23T15:16:06;15.17;;;6.07;;
417;SDS011;49;48.530;9.200;2023-02-23T15:18:37;24.50;;;5.90;;
417;SDS011;49;48.530;9.200;2023-02-23T15:21:06;22.73;;;6.27;;
417;SDS011;49;48.530;9.200;2023-02-23T15:23:37;12.23;;;5.40;;
417;SDS011;49;48.530;9.200;2023-02-23T15:26:14;27.27;;;6.97;;
417;SDS011;49;48.530;9.200;2023-02-23T15:28:45;22.17;;;5.97;;
417;SDS011;49;48.530;9.200;2023-02-23T15:31:15;12.00;;;5.90;;
417;SDS011;49;48.530;9.200;2023-02-23T15:33:54;17.17;;;5.60;;
417;SDS011;49;48.530;9.200;2023-02-23T15:36:31;10.67;;;5.33;;
417;SDS011;49;48.530;9.200;2023-02-23T15:39:05;10.27;;;5.17;;
417;SDS011;49;48.530;9.200;2023-02-23T15:41:40;27.10;;;6.40;;
417;SDS011;49;48.530;9.200;2023-02-23T15:44:17;9.80;;;5.43;;
417;SDS011;49;48.530;9.200;2023-02-23T15:47:14;16.93;;;6.87;;
417;SDS011;49;48.530;9.200;2023-02-23T15:49:52;15.23;;;7.40;;
417;SDS011;49;48.530;9.200;2023-02-23T15:52:37;12.53;;;5.80;;
417;SDS011;49;48.530;9.200;2023-02-23T15:55:18;19.83;;;5.63;;
417;SDS011;49;48.530;9.200;2023-02-23T15:57:52;20.67;;;5.90;;
417;SDS011;49;48.530;9.200;2023-02-23T16:00:27;18.30;;;6.27;;
417;SDS011;49;48.530;9.200;2023-02-23T16:03:01;17.07;;;6.13;;
417;SDS011;49;48.530;9.200;2023-02-23T16:05:31;22.67;;;7.30;;
417;SDS011;49;48.530;9.200;2023-02-23T16:08:15;17.43;;;7.20;;
417;SDS011;49;48.530;9.200;2023-02-23T16:11:07;16.73;;;8.13;;
417;SDS011;49;48.530;9.200;2023-02-23T16:13:41;30.23;;;7.70;;
417;SDS011;49;48.530;9.200;2023-02-23T16:16:13;21.27;;;8.73;;
417;SDS011;49;48.530;9.200;2023-02-23T16:18:52;16.43;;;8.43;;
417;SDS011;49;48.530;9.200;2023-02-23T16:21:25;19.97;;;8.80;;
417;SDS011;49;48.530;9.200;2023-02-23T16:23:56;27.13;;;9.33;;
417;SDS011;49;48.530;9.200;2023-02-23T16:26:32;20.93;;;9.63;;
417;SDS011;49;48.530;9.200;2023-02-23T16:29:05;29.47;;;10.20;;
417;SDS011;49;48.530;9.200;2023-02-23T16:31:45;26.10;;;9.97;;
417;SDS011;49;48.530;9.200;2023-02-23T16:34:22;21.67;;;10.60;;
417;SDS011;49;48.530;9.200;2023-02-23T16:36:55;34.27;;;10.43;;
417;SDS011;49;48.530;9.200;2023-02-23T16:39:29;22.13;;;11.03;;
417;SDS011;49;48.530;9.200;2023-02-23T16:42:10;29.63;;;9.20;;
417;SDS011;49;48.530;9.200;2023-02-23T16:44:48;25.17;;;11.07;;
417;SDS011;49;48.530;9.200;2023-02-23T16:47:31;18.33;;;10.97;;